Time;durP1;ratioP1;P1;durP2;ratioP2;P2;SDS_P1;SDS_P2;PMS_P1;PMS_P2;Temp;Humidity;BMP_temperature;BMP_pressure;BME280_temperature;BME280_humidity;BME280_pressure;Samples;Min_cycle;Max_cycle;Signal;HPM_P1;HPM_P2
2023/01/01 00:00:47;;;;;;;30.52;16.77;;;12.90;99.90;;;;;;5038093;28;20094;-62
2023/01/01 00:03:13;;;;;;;20.38;12.00;;;12.90;99.90;;;;;;5045547;28;20259;-62
2023/01/01 00:05:39;;;;;;;36.65;11.77;;;12.90;99.90;;;;;;5041800;28;20064;-62
2023/01/01 00:08:06;;;;;;;21.20;10.85;;;12.90;99.90;;;;;;5041097;28;20061;-62
2023/01/01 00:10:32;;;;;;;24.95;10.60;;;12.90;99.90;;;;;;5039820;28;20033;-62
2023/01/01 00:12:58;;;;;;;22.42;11.10;;;12.90;99.90;;;;;;5028690;28;20044;-61
2023/01/01 00:15:26;;;;;;;17.25;9.43;;;12.90;99.90;;;;;;5041885;28;20086;-62
2023/01/01 00:17:52;;;;;;;18.83;9.43;;;12.90;99.90;;;;;;5040138;28;20049;-62
2023/01/01 00:20:18;;;;;;;17.60;9.00;;;12.90;99.90;;;;;;5039542;28;20118;-62
2023/01/01 00:22:44;;;;;;;17.17;8.80;;;12.90;99.90;;;;;;5035521;28;20056;-62
2023/01/01 00:25:13;;;;;;;20.67;10.48;;;13.00;99.90;;;;;;5044300;28;20033;-62
2023/01/01 00:27:39;;;;;;;21.88;10.48;;;13.00;99.90;;;;;;5028633;28;20090;-62
2023/01/01 00:30:06;;;;;;;18.52;10.57;;;13.00;99.90;;;;;;5039364;28;20037;-62
2023/01/01 00:32:31;;;;;;;27.98;12.02;;;13.00;99.90;;;;;;5036155;28;20044;-61
2023/01/01 00:34:57;;;;;;;25.40;12.48;;;13.00;99.90;;;;;;5041009;28;20422;-62
2023/01/01 00:37:23;;;;;;;22.00;13.05;;;13.00;99.90;;;;;;5041772;28;20064;-62
2023/01/01 00:39:48;;;;;;;26.88;14.23;;;13.00;99.90;;;;;;5034656;28;20048;-61
2023/01/01 00:42:14;;;;;;;24.13;13.15;;;13.00;99.90;;;;;;5037323;28;20484;-62
2023/01/01 00:44:40;;;;;;;21.73;14.27;;;13.00;99.90;;;;;;5044490;28;20041;-62
2023/01/01 00:47:06;;;;;;;26.77;14.32;;;13.00;99.90;;;;;;5010887;28;20045;-62
2023/01/01 00:49:31;;;;;;;26.50;14.52;;;13.00;99.90;;;;;;5037674;28;20060;-61
2023/01/01 00:51:57;;;;;;;25.45;15.85;;;12.90;99.90;;;;;;5023655;28;20052;-62
2023/01/01 00:54:23;;;;;;;30.17;17.25;;;12.90;99.90;;;;;;5041005;28;20098;-62
2023/01/01 00:56:48;;;;;;;30.55;19.02;;;12.90;99.90;;;;;;5018769;28;20432;-62
2023/01/01 00:59:14;;;;;;;32.50;18.42;;;12.80;99.90;;;;;;5035602;28;20037;-62
2023/01/01 01:01:40;;;;;;;27.17;18.58;;;12.80;99.90;;;;;;5049161;28;20067;-62
2023/01/01 01:04:07;;;;;;;27.77;17.80;;;12.80;99.90;;;;;;5035692;28;20041;-62
2023/01/01 01:06:33;;;;;;;38.55;18.20;;;12.70;99.90;;;;;;5036207;28;20038;-62
2023/01/01 01:08:59;;;;;;;28.13;18.73;;;12.70;99.90;;;;;;5035152;28;20029;-62
2023/01/01 01:11:25;;;;;;;30.98;18.27;;;12.70;99.90;;;;;;5034186;28;20047;-62
2023/01/01 01:13:53;;;;;;;30.30;18.35;;;12.70;99.90;;;;;;5042922;28;20075;-62
2023/01/01 01:16:23;;;;;;;34.58;17.33;;;12.80;99.90;;;;;;5039350;28;20041;-62
2023/01/01 01:18:50;;;;;;;35.03;15.73;;;12.80;99.90;;;;;;5042023;28;20373;-61
2023/01/01 01:21:18;;;;;;;26.77;15.45;;;12.80;99.90;;;;;;5018534;28;20053;-62
2023/01/01 01:23:44;;;;;;;22.48;14.38;;;12.80;99.90;;;;;;5035382;28;20043;-61
2023/01/01 01:26:12;;;;;;;26.20;12.77;;;12.80;99.90;;;;;;5030830;28;20423;-62
2023/01/01 01:28:39;;;;;;;21.42;10.05;;;12.90;99.90;;;;;;5027089;28;20456;-62
2023/01/01 01:31:05;;;;;;;30.13;18.52;;;12.90;99.90;;;;;;5024972;28;20075;-61
2023/01/01 01:33:31;;;;;;;21.45;8.05;;;12.80;99.90;;;;;;5021622;28;20530;-61
2023/01/01 01:35:57;;;;;;;17.58;6.95;;;12.80;99.90;;;;;;5015474;28;20174;-61
2023/01/01 01:38:22;;;;;;;19.58;7.10;;;12.80;99.90;;;;;;5027122;28;20459;-61
2023/01/01 01:40:48;;;;;;;20.20;10.95;;;12.80;99.90;;;;;;5021715;28;20040;-61
2023/01/01 01:43:31;;;;;;;28.45;15.75;;;12.70;99.90;;;;;;5039692;28;20519;-62
2023/01/01 01:46:06;;;;;;;32.42;21.23;;;12.60;99.90;;;;;;5039445;28;20033;-62
2023/01/01 01:48:38;;;;;;;38.70;27.08;;;12.60;99.90;;;;;;5053659;28;20460;-62
2023/01/01 01:51:04;;;;;;;40.55;26.73;;;12.50;99.90;;;;;;5035158;28;20051;-62
2023/01/01 01:53:33;;;;;;;44.20;29.23;;;12.40;99.90;;;;;;5034509;28;20156;-61
2023/01/01 01:56:06;;;;;;;40.42;29.63;;;12.40;99.90;;;;;;5042941;28;20076;-62
2023/01/01 01:58:32;;;;;;;45.60;28.23;;;12.30;99.90;;;;;;5037283;28;20072;-62
2023/01/01 02:00:59;;;;;;;38.03;25.60;;;12.30;99.90;;;;;;5017884;28;20495;-61
2023/01/01 02:03:34;;;;;;;43.53;25.50;;;12.30;99.90;;;;;;5036102;28;20072;-61
2023/01/01 02:06:00;;;;;;;41.92;24.60;;;12.30;99.90;;;;;;5040997;28;20041;-61
2023/01/01 02:08:27;;;;;;;35.53;22.25;;;12.30;99.90;;;;;;5038332;28;20043;-62
2023/01/01 02:10:53;;;;;;;35.35;20.42;;;12.30;99.90;;;;;;5035643;28;20139;-62
2023/01/01 02:13:19;;;;;;;34.70;18.60;;;12.30;99.90;;;;;;5030609;28;20537;-61
2023/01/01 02:15:56;;;;;;;22.33;14.55;;;12.30;99.90;;;;;;5039536;28;20060;-62
2023/01/01 02:18:47;;;;;;;21.23;9.02;;;12.40;99.90;;;;;;5039228;28;20559;-61
2023/01/01 02:21:23;;;;;;;19.55;6.97;;;12.40;99.90;;;;;;5036729;28;20041;-62
2023/01/01 02:24:01;;;;;;;16.48;6.05;;;12.40;99.90;;;;;;5038642;28;20095;-61
2023/01/01 02:26:48;;;;;;;16.65;6.25;;;12.40;99.90;;;;;;5031917;28;20045;-61
2023/01/01 02:29:30;;;;;;;17.42;5.43;;;12.40;99.90;;;;;;5041295;28;20743;-61
2023/01/01 02:32:05;;;;;;;15.52;4.72;;;12.50;99.90;;;;;;5038608;28;20668;-62
2023/01/01 02:34:37;;;;;;;14.82;5.15;;;12.50;99.90;;;;;;5041094;28;20244;-61
2023/01/01 02:37:07;;;;;;;15.90;4.30;;;12.40;99.90;;;;;;5055421;28;20115;-62
2023/01/01 02:39:37;;;;;;;15.35;4.82;;;12.40;99.90;;;;;;5013414;28;20205;-61
2023/01/01 02:42:06;;;;;;;12.05;4.22;;;12.40;99.90;;;;;;5038272;28;20075;-62
2023/01/01 02:44:35;;;;;;;14.63;4.47;;;12.40;99.90;;;;;;5035904;28;20470;-62
2023/01/01 02:47:13;;;;;;;14.18;3.97;;;12.40;99.90;;;;;;5033769;28;20036;-62
2023/01/01 02:49:49;;;;;;;14.20;4.70;;;12.40;99.90;;;;;;5046555;28;20041;-62
2023/01/01 02:52:33;;;;;;;12.38;5.13;;;12.40;99.90;;;;;;5055673;28;20048;-61
2023/01/01 02:55:01;;;;;;;;;;;12.40;99.90;;;;;;5039237;28;20052;-61
2023/01/01 02:57:49;;;;;;;13.43;5.72;;;12.30;99.90;;;;;;5025111;28;20500;-62
2023/01/01 03:00:26;;;;;;;17.08;5.75;;;12.30;99.90;;;;;;5037327;28;20091;-62
2023/01/01 03:03:14;;;;;;;16.33;7.75;;;12.20;99.90;;;;;;5041138;28;20182;-61
2023/01/01 03:06:34;;;;;;;17.95;9.98;;;12.20;99.90;;;;;;5018762;28;20044;-62
2023/01/01 03:09:00;;;;;;;21.80;13.10;;;12.20;99.90;;;;;;5020447;28;20045;-61
2023/01/01 03:11:42;;;;;;;24.52;10.27;;;12.10;99.90;;;;;;5028917;28;20162;-61
2023/01/01 03:14:26;;;;;;;13.07;8.27;;;12.10;99.90;;;;;;5035438;28;20083;-62
2023/01/01 03:17:30;;;;;;;15.10;5.18;;;12.10;99.90;;;;;;5038045;28;20511;-62
2023/01/01 03:20:00;;;;;;;16.20;4.57;;;12.20;99.90;;;;;;5031761;28;20053;-62
2023/01/01 03:22:32;;;;;;;18.02;4.57;;;12.20;99.90;;;;;;5025770;28;20064;-62
2023/01/01 03:25:09;;;;;;;14.77;5.05;;;12.20;99.90;;;;;;5014284;28;20045;-62
2023/01/01 03:27:40;;;;;;;12.95;4.88;;;12.20;99.90;;;;;;5009928;28;20500;-62
2023/01/01 03:30:09;;;;;;;21.98;4.57;;;12.20;99.90;;;;;;5029856;28;20045;-62
2023/01/01 03:33:04;;;;;;;12.55;4.30;;;12.20;99.90;;;;;;5036776;28;20054;-62
2023/01/01 03:35:44;;;;;;;12.77;4.53;;;12.20;99.90;;;;;;5027695;28;20581;-62
2023/01/01 03:38:24;;;;;;;15.73;4.50;;;12.20;99.90;;;;;;5038188;28;20079;-62
2023/01/01 03:40:56;;;;;;;13.75;5.40;;;12.20;99.90;;;;;;5040610;28;20037;-61
2023/01/01 03:43:40;;;;;;;16.63;5.32;;;12.20;99.90;;;;;;5037709;28;20069;-62
2023/01/01 03:46:09;;;;;;;17.67;5.03;;;12.20;99.90;;;;;;5037018;28;20079;-61
2023/01/01 03:48:54;;;;;;;25.60;5.80;;;12.10;99.90;;;;;;5024450;28;20484;-62
2023/01/01 03:51:44;;;;;;;17.70;4.82;;;12.10;99.90;;;;;;5021124;28;20076;-62
2023/01/01 03:54:36;;;;;;;20.70;5.30;;;12.10;99.90;;;;;;5039322;28;20044;-62
2023/01/01 03:57:27;;;;;;;16.80;4.80;;;12.00;99.90;;;;;;5053892;28;20581;-62
2023/01/01 04:00:15;;;;;;;16.38;4.65;;;12.00;99.90;;;;;;5035083;28;20060;-62
2023/01/01 04:03:03;;;;;;;17.92;4.90;;;12.00;99.90;;;;;;5035243;28;20045;-62
2023/01/01 04:05:34;;;;;;;17.75;5.65;;;12.40;99.90;;;;;;5041655;28;20039;-62
2023/01/01 04:08:01;;;;;;;18.45;5.07;;;11.90;99.90;;;;;;5034208;28;20125;-62
2023/01/01 04:10:30;;;;;;;18.77;5.13;;;11.90;99.90;;;;;;5038751;28;20041;-62
2023/01/01 04:12:57;;;;;;;19.27;5.32;;;11.90;99.90;;;;;;5037310;28;20105;-62
2023/01/01 04:15:26;;;;;;;10.88;4.07;;;11.90;99.90;;;;;;5039204;28;20048;-62
2023/01/01 04:17:53;;;;;;;13.15;3.95;;;11.90;99.90;;;;;;5024862;28;20094;-61
2023/01/01 04:20:20;;;;;;;18.05;5.32;;;11.90;99.90;;;;;;5039379;28;20064;-62
2023/01/01 04:22:46;;;;;;;17.48;4.68;;;11.90;99.90;;;;;;5037970;28;20513;-62
2023/01/01 04:25:13;;;;;;;17.58;4.00;;;11.90;99.90;;;;;;5043455;28;20120;-62
2023/01/01 04:27:39;;;;;;;13.40;3.03;;;11.90;99.90;;;;;;5037608;28;20313;-62
2023/01/01 04:30:08;;;;;;;15.40;3.38;;;11.90;99.90;;;;;;5038893;28;20526;-62
2023/01/01 04:32:33;;;;;;;13.48;3.00;;;11.90;99.90;;;;;;5036260;28;20033;-62
2023/01/01 04:34:59;;;;;;;10.38;3.22;;;11.90;99.90;;;;;;5021022;28;20056;-62
2023/01/01 04:37:26;;;;;;;13.52;3.38;;;11.90;99.90;;;;;;5032477;28;20037;-62
2023/01/01 04:39:51;;;;;;;18.00;4.80;;;11.90;99.90;;;;;;5028021;28;20061;-62
2023/01/01 04:42:17;;;;;;;30.05;6.00;;;11.90;99.90;;;;;;5001315;28;20041;-62
2023/01/01 04:44:43;;;;;;;19.73;4.72;;;11.90;99.90;;;;;;5034775;28;20041;-62
2023/01/01 04:47:09;;;;;;;22.30;6.45;;;11.90;99.90;;;;;;5037821;28;20121;-61
2023/01/01 04:49:35;;;;;;;17.88;5.00;;;11.90;99.90;;;;;;5029030;28;20059;-62
2023/01/01 04:52:01;;;;;;;21.58;4.57;;;11.90;99.90;;;;;;5041830;28;20034;-62
2023/01/01 04:54:27;;;;;;;20.63;4.55;;;11.90;99.90;;;;;;5018396;28;20053;-62
2023/01/01 04:56:53;;;;;;;21.58;4.20;;;11.90;99.90;;;;;;5044095;28;20049;-61
2023/01/01 04:59:18;;;;;;;22.23;4.60;;;11.90;99.90;;;;;;5015348;28;20052;-61
2023/01/01 05:01:44;;;;;;;22.33;4.55;;;11.90;99.90;;;;;;5042034;28;20045;-62
2023/01/01 05:04:13;;;;;;;19.40;4.38;;;12.00;99.90;;;;;;5051378;22;20534;-62
2023/01/01 05:06:39;;;;;;;15.57;4.30;;;12.00;99.90;;;;;;5052577;28;20494;-62
2023/01/01 05:09:05;;;;;;;18.52;5.28;;;12.00;99.90;;;;;;5040495;28;20032;-62
2023/01/01 05:11:31;;;;;;;19.60;4.53;;;12.00;99.90;;;;;;5029356;28;20396;-62
2023/01/01 05:14:00;;;;;;;26.13;4.30;;;12.00;99.90;;;;;;5025391;28;20396;-62
2023/01/01 05:16:29;;;;;;;17.55;3.75;;;12.00;99.90;;;;;;5024036;28;20057;-62
2023/01/01 05:18:55;;;;;;;15.70;3.60;;;11.90;99.90;;;;;;5011877;28;20056;-61
2023/01/01 05:21:23;;;;;;;15.38;3.60;;;11.90;99.90;;;;;;5027280;28;20388;-62
2023/01/01 05:23:55;;;;;;;18.73;3.97;;;11.90;99.90;;;;;;5023346;28;20682;-62
2023/01/01 05:26:24;;;;;;;16.00;3.40;;;11.90;99.90;;;;;;5010888;28;20049;-62
2023/01/01 05:28:50;;;;;;;17.23;3.47;;;11.90;99.90;;;;;;5032647;28;20037;-62
2023/01/01 05:31:20;;;;;;;11.80;3.75;;;11.90;99.90;;;;;;5021506;28;20068;-62
2023/01/01 05:33:46;;;;;;;11.88;3.05;;;11.90;99.90;;;;;;5019396;28;20056;-62
2023/01/01 05:36:16;;;;;;;14.57;3.30;;;11.90;99.90;;;;;;5006079;28;20136;-62
2023/01/01 05:38:42;;;;;;;13.55;3.33;;;11.90;99.90;;;;;;5018756;28;20049;-62
2023/01/01 05:41:10;;;;;;;10.88;2.60;;;11.90;99.90;;;;;;5034591;28;20037;-62
2023/01/01 05:43:36;;;;;;;13.38;2.72;;;11.80;99.90;;;;;;5021374;28;20048;-62
2023/01/01 05:46:08;;;;;;;13.90;2.72;;;11.80;99.90;;;;;;5015617;28;20038;-62
2023/01/01 05:48:37;;;;;;;19.40;3.88;;;11.80;99.90;;;;;;5035953;28;20080;-62
2023/01/01 05:51:13;;;;;;;18.77;3.28;;;11.80;99.90;;;;;;5021313;28;20076;-62
2023/01/01 05:53:39;;;;;;;15.75;3.08;;;11.80;99.90;;;;;;5007193;28;20037;-62
2023/01/01 05:56:06;;;;;;;16.08;3.17;;;11.80;99.90;;;;;;5016458;28;20041;-62
2023/01/01 05:58:33;;;;;;;19.52;3.15;;;11.70;99.90;;;;;;5022673;28;20037;-62
2023/01/01 06:01:07;;;;;;;15.27;3.42;;;11.70;99.90;;;;;;5031576;28;20504;-62
2023/01/01 06:03:33;;;;;;;13.18;2.53;;;11.70;99.90;;;;;;5020437;28;20515;-62
2023/01/01 06:06:06;;;;;;;15.82;2.67;;;11.70;99.90;;;;;;5020021;28;20034;-62
2023/01/01 06:08:33;;;;;;;21.52;3.28;;;11.60;99.90;;;;;;5024913;28;20041;-62
2023/01/01 06:11:03;;;;;;;16.85;3.45;;;11.60;99.90;;;;;;5033815;28;20041;-62
2023/01/01 06:13:30;;;;;;;17.17;4.07;;;11.50;99.90;;;;;;5025952;28;20041;-62
2023/01/01 06:15:57;;;;;;;12.40;2.83;;;11.50;99.90;;;;;;5009221;28;20037;-62
2023/01/01 06:18:23;;;;;;;17.02;3.55;;;11.50;99.90;;;;;;5020760;28;20425;-62
2023/01/01 06:20:50;;;;;;;18.35;3.58;;;11.50;99.90;;;;;;5002547;28;20040;-62
2023/01/01 06:23:16;;;;;;;14.40;3.33;;;11.50;99.90;;;;;;5018350;28;20040;-62
2023/01/01 06:25:42;;;;;;;24.48;4.85;;;11.50;99.90;;;;;;5019177;28;20399;-62
2023/01/01 06:28:07;;;;;;;17.85;3.63;;;11.50;99.90;;;;;;5043507;28;20052;-62
2023/01/01 06:30:33;;;;;;;13.25;3.75;;;11.50;99.90;;;;;;5013864;28;20212;-62
2023/01/01 06:33:00;;;;;;;13.23;3.00;;;11.50;99.90;;;;;;5008672;28;20073;-62
2023/01/01 06:35:27;;;;;;;12.90;3.30;;;11.40;99.90;;;;;;5019611;28;20033;-62
2023/01/01 06:37:52;;;;;;;13.60;3.95;;;11.50;99.90;;;;;;5021399;28;20064;-62
2023/01/01 06:40:18;;;;;;;20.13;3.13;;;11.40;99.90;;;;;;5016908;28;20264;-62
2023/01/01 06:42:44;;;;;;;13.48;3.65;;;11.40;99.90;;;;;;5001451;28;20033;-62
2023/01/01 06:45:10;;;;;;;15.88;3.75;;;11.40;99.90;;;;;;5020113;28;20807;-62
2023/01/01 06:47:36;;;;;;;18.80;3.15;;;11.40;99.90;;;;;;5002230;28;20048;-62
2023/01/01 06:50:03;;;;;;;20.42;3.60;;;11.40;99.90;;;;;;4997414;28;20033;-62
2023/01/01 06:52:29;;;;;;;18.67;3.42;;;11.40;99.90;;;;;;5020463;28;20045;-62
2023/01/01 06:54:54;;;;;;;14.43;3.15;;;11.40;99.90;;;;;;4998163;28;20045;-62
2023/01/01 06:57:20;;;;;;;20.33;4.05;;;11.30;99.90;;;;;;5023437;28;20083;-62
2023/01/01 06:59:46;;;;;;;18.65;3.63;;;11.30;99.90;;;;;;5001247;28;20048;-62
2023/01/01 07:02:11;;;;;;;21.13;3.80;;;11.30;99.90;;;;;;4997448;28;20057;-62
2023/01/01 07:04:38;;;;;;;23.33;5.68;;;11.30;99.90;;;;;;5018481;28;20041;-62
2023/01/01 07:07:04;;;;;;;15.43;3.25;;;11.30;99.90;;;;;;5017498;28;20120;-62
2023/01/01 07:09:30;;;;;;;22.15;4.13;;;11.30;99.90;;;;;;5021899;28;20233;-62
2023/01/01 07:11:56;;;;;;;25.08;4.40;;;11.30;99.90;;;;;;5022126;28;20143;-62
2023/01/01 07:14:21;;;;;;;23.40;3.83;;;11.30;99.90;;;;;;5021374;28;20480;-62
2023/01/01 07:16:47;;;;;;;30.80;5.15;;;11.30;99.90;;;;;;5017578;28;20054;-62
2023/01/01 07:19:13;;;;;;;22.58;3.97;;;11.30;99.90;;;;;;5014800;28;20041;-62
2023/01/01 07:21:51;;;;;;;25.30;4.35;;;11.20;99.90;;;;;;5018377;28;20048;-63
2023/01/01 07:24:17;;;;;;;20.10;4.30;;;11.20;99.90;;;;;;5008768;28;20435;-62
2023/01/01 07:26:44;;;;;;;25.58;4.45;;;11.30;99.90;;;;;;5019814;28;20037;-62
2023/01/01 07:29:11;;;;;;;18.92;3.78;;;11.20;99.90;;;;;;5013870;28;20056;-62
2023/01/01 07:31:39;;;;;;;21.52;3.85;;;11.20;99.90;;;;;;5014799;28;20049;-62
2023/01/01 07:34:06;;;;;;;26.45;4.45;;;11.20;99.90;;;;;;5005021;28;20047;-62
2023/01/01 07:36:32;;;;;;;25.20;4.63;;;11.20;99.90;;;;;;5000721;28;20542;-62
2023/01/01 07:38:58;;;;;;;25.10;4.40;;;11.10;99.90;;;;;;5014018;28;20557;-62
2023/01/01 07:41:24;;;;;;;26.85;4.57;;;11.10;99.90;;;;;;4992245;28;20095;-62
2023/01/01 07:43:50;;;;;;;25.35;4.32;;;11.10;99.90;;;;;;4998369;28;20072;-62
2023/01/01 07:46:17;;;;;;;22.33;4.15;;;11.10;99.90;;;;;;5020581;28;20052;-62
2023/01/01 07:48:43;;;;;;;21.55;4.72;;;11.10;99.90;;;;;;5019568;28;20510;-62
2023/01/01 07:51:09;;;;;;;25.25;3.80;;;11.10;99.90;;;;;;5021002;28;20039;-62
2023/01/01 07:53:35;;;;;;;20.75;4.82;;;11.10;99.90;;;;;;5020433;28;20041;-62
2023/01/01 07:56:01;;;;;;;22.52;4.18;;;11.10;99.90;;;;;;5014854;28;20030;-62
2023/01/01 07:58:27;;;;;;;19.58;3.85;;;11.10;99.90;;;;;;5021057;28;20641;-63
2023/01/01 08:00:53;;;;;;;22.58;4.80;;;11.10;99.90;;;;;;5007630;28;20242;-62
2023/01/01 08:03:18;;;;;;;25.80;4.35;;;11.10;99.90;;;;;;5006657;28;20041;-62
2023/01/01 08:05:44;;;;;;;19.15;3.83;;;11.10;99.90;;;;;;5008419;28;20085;-62
2023/01/01 08:08:10;;;;;;;24.42;4.60;;;11.10;99.90;;;;;;5011912;28;20034;-62
2023/01/01 08:10:37;;;;;;;27.02;4.30;;;11.10;99.90;;;;;;5013111;28;20047;-62
2023/01/01 08:13:05;;;;;;;26.10;4.45;;;11.10;99.90;;;;;;5016496;28;20103;-62
2023/01/01 08:15:31;;;;;;;22.08;4.55;;;11.10;99.90;;;;;;5023127;28;20414;-62
2023/01/01 08:17:58;;;;;;;21.83;4.50;;;11.10;99.90;;;;;;5012601;28;20402;-62
2023/01/01 08:20:25;;;;;;;27.73;5.60;;;11.10;99.90;;;;;;5013164;28;20052;-62
2023/01/01 08:22:51;;;;;;;23.80;4.60;;;11.10;99.90;;;;;;5018594;28;20045;-62
2023/01/01 08:25:17;;;;;;;26.05;4.60;;;11.10;99.90;;;;;;5021042;28;20037;-62
2023/01/01 08:27:42;;;;;;;20.80;6.25;;;11.20;99.90;;;;;;5023134;28;20049;-62
2023/01/01 08:30:10;;;;;;;34.25;5.25;;;11.10;99.90;;;;;;5002850;28;20436;-62
2023/01/01 08:32:36;;;;;;;26.15;4.95;;;11.10;99.90;;;;;;5006760;28;20034;-62
2023/01/01 08:35:02;;;;;;;24.23;5.40;;;11.10;99.90;;;;;;5018583;28;20107;-62
2023/01/01 08:37:27;;;;;;;23.98;4.68;;;11.10;99.90;;;;;;5021648;28;20214;-62
2023/01/01 08:39:53;;;;;;;29.63;5.20;;;11.20;99.90;;;;;;5023178;28;20049;-62
2023/01/01 08:42:19;;;;;;;32.22;6.63;;;11.20;99.90;;;;;;5026018;28;21060;-62
2023/01/01 08:44:45;;;;;;;21.65;5.47;;;11.20;99.90;;;;;;4999557;28;20100;-62
2023/01/01 08:47:29;;;;;;;32.85;6.65;;;11.20;99.90;;;;;;5027246;28;20124;-62
2023/01/01 08:49:55;;;;;;;26.70;5.78;;;11.20;99.90;;;;;;5008176;28;20050;-62
2023/01/01 08:52:22;;;;;;;31.05;5.93;;;11.10;99.90;;;;;;5010044;28;20048;-61
2023/01/01 08:54:47;;;;;;;23.40;5.18;;;11.20;99.90;;;;;;5037118;28;20231;-61
2023/01/01 08:57:14;;;;;;;27.50;5.35;;;11.20;99.90;;;;;;5021020;28;20037;-62
2023/01/01 08:59:39;;;;;;;31.45;6.60;;;11.20;99.90;;;;;;4999894;28;20447;-61
2023/01/01 09:02:06;;;;;;;29.23;4.95;;;11.20;99.90;;;;;;4997016;28;20042;-62
2023/01/01 09:04:32;;;;;;;28.67;5.35;;;11.10;99.90;;;;;;5018994;28;20117;-62
2023/01/01 09:06:58;;;;;;;24.40;4.63;;;11.10;99.90;;;;;;5018251;28;20045;-62
2023/01/01 09:09:24;;;;;;;22.60;4.85;;;11.20;99.90;;;;;;5002560;28;20042;-62
2023/01/01 09:11:52;;;;;;;29.45;5.35;;;11.10;99.90;;;;;;5019229;28;20123;-62
2023/01/01 09:14:18;;;;;;;25.98;4.82;;;11.10;99.90;;;;;;5019299;28;20530;-62
2023/01/01 09:16:43;;;;;;;33.85;5.05;;;11.10;99.90;;;;;;5003003;28;20298;-62
2023/01/01 09:19:09;;;;;;;30.15;5.72;;;11.10;99.90;;;;;;5012737;28;20519;-61
2023/01/01 09:21:35;;;;;;;29.95;5.57;;;11.10;99.90;;;;;;5023448;28;20045;-61
2023/01/01 09:24:01;;;;;;;25.73;5.00;;;11.10;99.90;;;;;;5016739;28;20045;-62
2023/01/01 09:26:26;;;;;;;22.50;4.07;;;11.10;99.90;;;;;;5008195;28;20053;-61
2023/01/01 09:28:52;;;;;;;26.73;5.57;;;11.10;99.90;;;;;;5000298;28;20034;-62
2023/01/01 09:31:18;;;;;;;23.92;5.07;;;11.10;99.90;;;;;;4989462;28;20124;-62
2023/01/01 09:33:43;;;;;;;30.05;5.35;;;11.10;99.90;;;;;;5022022;28;20053;-61
2023/01/01 09:36:36;;;;;;;23.25;5.03;;;11.10;99.90;;;;;;5017846;28;20096;-62
2023/01/01 09:39:02;;;;;;;33.30;4.78;;;11.10;99.90;;;;;;5011337;28;20053;-62
2023/01/01 09:41:56;;;;;;;36.83;6.20;;;11.10;99.90;;;;;;5018230;28;20097;-62
2023/01/01 09:44:26;;;;;;;35.55;7.28;;;11.10;99.90;;;;;;5036251;28;20029;-62
2023/01/01 09:46:53;;;;;;;25.30;5.55;;;11.10;99.90;;;;;;5021642;28;20081;-62
2023/01/01 09:49:46;;;;;;;34.67;5.95;;;11.20;99.90;;;;;;5016345;28;20034;-62
2023/01/01 09:52:15;;;;;;;32.22;5.20;;;11.20;99.90;;;;;;5016354;28;20227;-62
2023/01/01 09:54:56;;;;;;;31.33;6.93;;;11.20;99.90;;;;;;5011242;28;20060;-62
2023/01/01 09:57:27;;;;;;;27.27;4.43;;;11.20;99.90;;;;;;5008856;28;20111;-61
2023/01/01 09:59:53;;;;;;;20.92;4.65;;;11.20;99.90;;;;;;5021055;28;20045;-62
2023/01/01 10:02:36;;;;;;;29.00;5.75;;;11.20;99.90;;;;;;5001713;28;20315;-62
2023/01/01 10:05:29;;;;;;;20.33;4.20;;;11.30;99.90;;;;;;5004010;28;20056;-61
2023/01/01 10:08:29;;;;;;;27.03;5.27;;;11.30;99.90;;;;;;5011384;28;20066;-62
2023/01/01 10:11:23;;;;;;;24.23;4.70;;;11.40;99.90;;;;;;4954663;28;20078;-62
2023/01/01 10:13:49;;;;;;;;;;;11.40;99.90;;;;;;5017174;28;20116;-62
2023/01/01 10:16:24;;;;;;;32.72;4.88;;;11.40;99.90;;;;;;5009373;28;19917;-62
2023/01/01 10:18:54;;;;;;;26.38;4.95;;;11.50;99.90;;;;;;4996180;28;20045;-62
2023/01/01 10:21:26;;;;;;;27.25;5.43;;;11.50;99.90;;;;;;5011876;28;20052;-62
2023/01/01 10:24:29;;;;;;;26.60;4.57;;;11.50;99.90;;;;;;5018353;28;20125;-62
2023/01/01 10:26:55;;;;;;;28.55;4.68;;;11.50;99.90;;;;;;5006978;28;20187;-62
2023/01/01 10:29:28;;;;;;;22.92;4.65;;;11.40;99.90;;;;;;5017282;28;20037;-62
2023/01/01 10:31:56;;;;;;;30.47;4.43;;;11.40;99.90;;;;;;5017573;28;20123;-62
2023/01/01 10:34:28;;;;;;;20.90;4.07;;;11.40;99.90;;;;;;5009368;28;20117;-62
2023/01/01 10:36:59;;;;;;;27.38;5.05;;;11.40;99.90;;;;;;5007569;28;20257;-61
2023/01/01 10:39:26;;;;;;;29.98;5.20;;;11.40;99.90;;;;;;5001742;28;20034;-62
2023/01/01 10:41:51;;;;;;;30.20;4.25;;;11.40;99.90;;;;;;5005785;28;20504;-62
2023/01/01 10:44:30;;;;;;;19.73;3.90;;;11.40;99.90;;;;;;5006655;28;20033;-62
2023/01/01 10:46:59;;;;;;;26.63;4.60;;;11.40;99.90;;;;;;5007882;28;20099;-62
2023/01/01 10:49:24;;;;;;;20.95;4.47;;;11.40;99.90;;;;;;5006255;28;20041;-62
2023/01/01 10:51:52;;;;;;;22.05;4.60;;;11.40;99.90;;;;;;4998897;28;21380;-62
2023/01/01 10:54:24;;;;;;;27.20;4.70;;;11.50;99.90;;;;;;4997386;28;20049;-62
2023/01/01 10:56:50;;;;;;;26.17;5.90;;;11.50;99.90;;;;;;5002885;28;20048;-62
2023/01/01 10:59:34;;;;;;;26.48;3.53;;;11.50;99.90;;;;;;5013079;28;20049;-62
2023/01/01 11:02:20;;;;;;;20.33;4.03;;;11.50;99.90;;;;;;4986997;28;20601;-62
2023/01/01 11:04:48;;;;;;;20.25;4.03;;;11.50;99.90;;;;;;5013714;22;20056;-60
2023/01/01 11:07:40;;;;;;;28.75;5.45;;;11.50;99.90;;;;;;4997561;28;20054;-60
2023/01/01 11:10:22;;;;;;;19.60;3.63;;;11.50;99.90;;;;;;4995468;28;20467;-61
2023/01/01 11:12:50;;;;;;;21.20;4.93;;;11.50;99.90;;;;;;5001555;28;20041;-60
2023/01/01 11:15:40;;;;;;;23.13;3.85;;;11.50;99.90;;;;;;4999357;28;20037;-61
2023/01/01 11:18:10;;;;;;;20.98;3.72;;;11.50;99.90;;;;;;5012473;28;20111;-60
2023/01/01 11:20:36;;;;;;;19.75;4.10;;;11.50;99.90;;;;;;5004239;28;20041;-60
2023/01/01 11:23:18;;;;;;;23.15;4.03;;;11.50;99.90;;;;;;5003418;28;20048;-61
2023/01/01 11:26:13;;;;;;;22.25;4.00;;;11.50;99.90;;;;;;5001686;28;20048;-61
2023/01/01 11:28:40;;;;;;;19.83;3.53;;;11.50;99.90;;;;;;4991839;28;20393;-60
2023/01/01 11:31:12;;;;;;;19.30;3.45;;;11.50;99.90;;;;;;4992650;28;20048;-61
2023/01/01 11:33:51;;;;;;;22.38;4.55;;;11.40;99.90;;;;;;4991238;28;20056;-61
2023/01/01 11:36:26;;;;;;;19.00;4.22;;;11.40;99.90;;;;;;5003748;28;20048;-60
2023/01/01 11:39:25;;;;;;;33.58;4.72;;;11.40;99.90;;;;;;5000292;28;20068;-61
2023/01/01 11:41:55;;;;;;;23.85;3.53;;;11.40;99.90;;;;;;4991239;28;20310;-60
2023/01/01 11:44:41;;;;;;;22.83;4.28;;;11.40;99.90;;;;;;4989503;28;20062;-60
2023/01/01 11:47:25;;;;;;;25.23;4.50;;;11.40;99.90;;;;;;5003868;28;20111;-60
2023/01/01 11:49:55;;;;;;;;;;;11.40;99.90;;;;;;5015942;28;20071;-58
2023/01/01 11:52:50;;;;;;;14.35;3.10;;;11.40;99.90;;;;;;4998333;28;20018;-60
2023/01/01 11:55:33;;;;;;;20.15;4.30;;;11.40;99.90;;;;;;4983592;28;20061;-61
2023/01/01 11:58:21;;;;;;;29.73;4.13;;;11.50;99.90;;;;;;5016386;28;20479;-61
2023/01/01 12:00:50;;;;;;;20.08;4.30;;;11.50;99.90;;;;;;5002741;28;20045;-60
2023/01/01 12:03:24;;;;;;;23.65;4.00;;;11.60;99.90;;;;;;5004990;28;20063;-60
2023/01/01 12:06:25;;;;;;;19.83;4.15;;;11.60;99.90;;;;;;5002864;22;20557;-62
2023/01/01 12:09:13;;;;;;;15.80;3.53;;;11.50;99.90;;;;;;4979804;28;20463;-62
2023/01/01 12:12:04;;;;;;;19.05;3.55;;;11.60;99.90;;;;;;5001542;28;20076;-62
2023/01/01 12:14:39;;;;;;;18.92;3.20;;;11.60;99.90;;;;;;4987079;28;20068;-62
2023/01/01 12:17:26;;;;;;;18.33;3.65;;;11.60;99.90;;;;;;4991569;28;20436;-63
2023/01/01 12:19:52;;;;;;;17.98;3.90;;;11.50;99.90;;;;;;4984969;28;20495;-62
2023/01/01 12:22:18;;;;;;;19.17;3.63;;;11.50;99.90;;;;;;4983556;28;20041;-62
2023/01/01 12:24:47;;;;;;;16.65;3.35;;;11.50;99.90;;;;;;4977372;28;20056;-62
2023/01/01 12:27:21;;;;;;;19.65;3.42;;;11.50;99.90;;;;;;4988319;28;20170;-62
2023/01/01 12:29:55;;;;;;;17.08;3.38;;;11.50;99.90;;;;;;4960805;28;20059;-62
2023/01/01 12:32:41;;;;;;;16.40;2.88;;;11.60;99.90;;;;;;4978742;28;20076;-62
2023/01/01 12:35:43;;;;;;;17.38;3.30;;;11.60;99.90;;;;;;4980499;28;20049;-62
2023/01/01 12:38:27;;;;;;;21.83;3.65;;;11.70;99.90;;;;;;4989659;28;20045;-62
2023/01/01 12:51:50;;;;;;;18.55;3.17;;;12.30;99.90;;;;;;5020427;27;1992273;-76
2023/01/01 12:54:34;;;;;;;20.45;3.80;;;12.20;99.90;;;;;;5028492;28;20041;-77
2023/01/01 12:57:24;;;;;;;20.13;3.60;;;12.00;99.90;;;;;;5048209;28;20076;-75
2023/01/01 12:59:52;;;;;;;16.05;3.25;;;11.90;99.90;;;;;;5052161;28;20040;-78
2023/01/01 13:02:20;;;;;;;20.17;4.07;;;11.80;99.90;;;;;;5037343;28;20052;-75
2023/01/01 13:04:51;;;;;;;16.80;3.58;;;11.70;99.90;;;;;;5055566;28;20245;-77
2023/01/01 13:07:33;;;;;;;14.13;3.22;;;11.70;99.90;;;;;;5039871;28;20049;-76